Time;durP1;ratioP1;P1;durP2;ratioP2;P2;SDS_P1;SDS_P2;PMS_P1;PMS_P2;Temp;Humidity;BMP_temperature;BMP_pressure;BME280_temperature;BME280_humidity;BME280_pressure;Samples;Min_cycle;Max_cycle;Signal;HPM_P1;HPM_P2
2021/11/14 00:00:10;;;;;;;24.53;22.20;;;8.50;91.30;;;;;;4971766;28;20504;-84
2021/11/14 00:02:36;;;;;;;25.27;22.73;;;8.60;91.20;;;;;;4970638;28;20485;-83
2021/11/14 00:05:02;;;;;;;23.40;21.20;;;8.50;91.00;;;;;;4971272;28;20426;-84
2021/11/14 00:07:27;;;;;;;21.67;19.57;;;8.50;91.00;;;;;;4972311;28;20500;-85
2021/11/14 00:09:53;;;;;;;21.50;19.30;;;8.50;91.00;;;;;;4970315;28;20521;-84
2021/11/14 00:12:19;;;;;;;22.50;20.10;;;8.60;91.00;;;;;;4972177;28;20277;-82
2021/11/14 00:14:44;;;;;;;20.77;18.73;;;8.60;91.00;;;;;;4970404;28;20189;-85
2021/11/14 00:17:10;;;;;;;20.50;18.50;;;8.50;90.80;;;;;;4971063;28;20179;-84
2021/11/14 00:19:36;;;;;;;21.80;19.50;;;8.60;90.70;;;;;;4970425;28;20183;-84
2021/11/14 00:22:02;;;;;;;19.13;17.40;;;8.60;90.90;;;;;;4970373;28;20554;-83
2021/11/14 00:24:27;;;;;;;20.00;17.90;;;8.60;90.90;;;;;;4970208;28;20478;-83
2021/11/14 00:26:53;;;;;;;20.70;18.50;;;8.50;90.90;;;;;;4970276;28;20214;-83
2021/11/14 00:29:19;;;;;;;21.47;19.37;;;8.60;91.20;;;;;;4969515;28;20436;-84
2021/11/14 00:31:44;;;;;;;20.70;18.77;;;8.60;91.20;;;;;;4970146;28;20446;-84
2021/11/14 00:34:10;;;;;;;18.33;16.60;;;8.60;91.30;;;;;;4970314;28;20271;-84
2021/11/14 00:36:38;;;;;;;17.13;15.60;;;8.50;91.60;;;;;;4969857;28;20270;-83
2021/11/14 00:39:13;;;;;;;19.30;17.40;;;8.50;91.40;;;;;;4969673;28;20476;-84
2021/11/14 00:41:38;;;;;;;22.10;20.10;;;8.50;91.60;;;;;;4969627;28;20910;-83
2021/11/14 00:44:06;;;;;;;22.63;19.97;;;8.50;91.80;;;;;;4969712;28;20417;-83
2021/11/14 00:46:32;;;;;;;21.20;19.00;;;8.60;91.50;;;;;;4969405;28;20429;-83
2021/11/14 00:48:58;;;;;;;21.40;19.30;;;8.50;91.40;;;;;;4969925;28;20425;-83
2021/11/14 00:51:28;;;;;;;25.37;21.60;;;8.50;91.70;;;;;;4969557;28;20422;-83
2021/11/14 00:53:55;;;;;;;22.50;20.30;;;8.50;91.70;;;;;;4969368;28;20288;-83
2021/11/14 00:56:22;;;;;;;20.40;18.40;;;8.50;91.90;;;;;;4969331;28;20692;-82
2021/11/14 00:58:48;;;;;;;21.90;19.97;;;8.50;92.10;;;;;;4969838;28;20546;-83
2021/11/14 01:01:14;;;;;;;22.33;20.23;;;8.50;92.20;;;;;;4969666;28;20446;-83
2021/11/14 01:03:39;;;;;;;22.73;20.43;;;8.50;92.40;;;;;;4969599;28;20524;-84
2021/11/14 01:06:05;;;;;;;21.17;19.17;;;8.50;92.20;;;;;;4969432;28;20517;-84
2021/11/14 01:08:31;;;;;;;22.83;20.60;;;8.50;91.90;;;;;;4969229;28;20264;-83
2021/11/14 01:10:58;;;;;;;22.47;20.37;;;8.50;92.20;;;;;;4969212;28;20179;-84
2021/11/14 01:13:24;;;;;;;23.00;20.80;;;8.50;92.20;;;;;;4969152;28;20214;-83
2021/11/14 01:15:52;;;;;;;21.70;19.50;;;8.50;92.40;;;;;;4968953;28;20907;-84
2021/11/14 01:18:19;;;;;;;24.60;22.30;;;8.50;92.70;;;;;;4969147;28;20457;-84
2021/11/14 01:20:49;;;;;;;21.30;19.10;;;8.50;93.00;;;;;;4970320;28;20418;-84
2021/11/14 01:23:16;;;;;;;21.00;18.77;;;8.50;93.10;;;;;;4973363;28;20442;-83
2021/11/14 01:25:43;;;;;;;21.93;19.80;;;8.50;93.20;;;;;;4973370;28;20501;-84
2021/11/14 01:28:09;;;;;;;22.17;19.87;;;8.50;93.00;;;;;;4972934;28;20665;-85
2021/11/14 01:30:39;;;;;;;22.63;20.40;;;8.50;93.20;;;;;;4973494;28;20526;-83
2021/11/14 01:33:06;;;;;;;23.57;21.07;;;8.40;92.90;;;;;;4973063;28;20473;-84
2021/11/14 01:35:32;;;;;;;23.03;20.73;;;8.40;93.60;;;;;;4973021;28;20915;-84
2021/11/14 01:37:58;;;;;;;21.23;19.10;;;8.40;93.60;;;;;;4973894;28;20468;-84
2021/11/14 01:40:33;;;;;;;22.97;20.53;;;8.40;94.00;;;;;;4974023;28;20447;-84
2021/11/14 01:42:59;;;;;;;20.53;18.53;;;8.40;94.20;;;;;;4972895;28;20269;-84
2021/11/14 01:45:25;;;;;;;22.27;20.00;;;8.40;94.10;;;;;;4972542;28;20655;-85
2021/11/14 01:47:51;;;;;;;23.43;20.13;;;8.40;94.00;;;;;;4972235;28;20480;-84
2021/11/14 01:50:19;;;;;;;19.00;16.93;;;8.40;94.20;;;;;;4972600;28;20422;-84
2021/11/14 01:52:48;;;;;;;19.30;17.40;;;8.40;94.90;;;;;;4972776;28;20985;-84
2021/11/14 01:55:16;;;;;;;20.57;18.40;;;8.30;94.50;;;;;;4973688;28;20414;-84
2021/11/14 01:57:43;;;;;;;21.03;18.93;;;8.30;94.20;;;;;;4972573;28;20456;-83
2021/11/14 02:00:14;;;;;;;18.60;16.80;;;8.30;94.20;;;;;;4972443;28;20428;-83
2021/11/14 02:02:40;;;;;;;20.60;18.50;;;8.30;94.30;;;;;;4972805;28;20418;-84
2021/11/14 02:05:09;;;;;;;21.37;18.63;;;8.30;94.70;;;;;;4972456;28;20537;-83
2021/11/14 02:07:36;;;;;;;21.77;18.53;;;8.30;94.70;;;;;;4972903;28;20476;-84
2021/11/14 02:10:02;;;;;;;19.03;17.23;;;8.30;94.40;;;;;;4972271;28;20422;-84
2021/11/14 02:12:28;;;;;;;19.50;17.70;;;8.30;94.90;;;;;;4973555;28;20452;-84
2021/11/14 02:14:54;;;;;;;22.60;20.20;;;8.30;94.20;;;;;;4972218;28;20418;-84
2021/11/14 02:17:20;;;;;;;23.27;20.73;;;8.30;93.90;;;;;;4972057;28;20174;-84
2021/11/14 02:19:51;;;;;;;20.90;18.80;;;8.30;94.20;;;;;;4972298;28;20779;-80
2021/11/14 02:22:18;;;;;;;24.47;22.00;;;8.30;93.90;;;;;;4972664;28;20469;-85
2021/11/14 02:24:44;;;;;;;21.03;18.97;;;8.30;93.60;;;;;;4972358;28;20430;-85
2021/11/14 02:27:10;;;;;;;22.40;20.10;;;8.20;93.40;;;;;;4973118;28;20447;-85
2021/11/14 02:29:36;;;;;;;23.07;20.80;;;8.30;94.00;;;;;;4972312;28;20426;-84
2021/11/14 02:32:01;;;;;;;22.00;20.00;;;8.30;93.60;;;;;;4973171;28;20485;-85
2021/11/14 02:34:27;;;;;;;23.60;21.10;;;8.30;93.50;;;;;;4972024;28;20187;-85
2021/11/14 02:36:53;;;;;;;22.90;20.20;;;8.30;93.80;;;;;;4972532;28;20253;-85
2021/11/14 02:39:19;;;;;;;22.80;20.50;;;8.30;94.20;;;;;;4971971;28;20212;-85
2021/11/14 02:41:45;;;;;;;23.03;20.63;;;8.30;93.90;;;;;;4972420;28;20186;-85
2021/11/14 02:44:11;;;;;;;22.80;20.70;;;8.20;94.00;;;;;;4971461;28;20178;-85
2021/11/14 02:46:36;;;;;;;23.60;21.20;;;8.30;93.70;;;;;;4971215;28;20422;-84
2021/11/14 02:49:03;;;;;;;24.27;21.77;;;8.30;94.10;;;;;;4972324;28;20179;-85
2021/11/14 02:51:30;;;;;;;23.53;21.07;;;8.30;93.60;;;;;;4971686;28;20186;-86
2021/11/14 02:53:57;;;;;;;22.10;19.90;;;8.30;94.20;;;;;;4972187;28;20461;-85
2021/11/14 02:56:24;;;;;;;23.50;21.23;;;8.30;93.80;;;;;;4971401;28;20509;-85
2021/11/14 02:58:50;;;;;;;22.93;20.73;;;8.30;94.10;;;;;;4972932;28;20487;-86
2021/11/14 03:01:26;;;;;;;22.70;20.40;;;8.30;94.20;;;;;;4971143;28;20517;-85
2021/11/14 03:03:53;;;;;;;23.33;21.00;;;8.30;94.20;;;;;;4971949;28;20425;-85
2021/11/14 03:06:19;;;;;;;22.43;20.10;;;8.30;94.20;;;;;;4971314;28;20977;-84
2021/11/14 03:08:45;;;;;;;23.87;21.60;;;8.30;94.20;;;;;;4971615;28;20432;-85
2021/11/14 03:11:11;;;;;;;25.67;21.60;;;8.30;94.50;;;;;;4972170;28;20410;-84
2021/11/14 03:13:37;;;;;;;24.40;21.87;;;8.30;94.60;;;;;;4972108;28;20217;-85
2021/11/14 03:16:06;;;;;;;23.93;21.43;;;8.30;94.50;;;;;;4970966;28;20635;-83
2021/11/14 03:18:32;;;;;;;28.40;23.90;;;8.30;94.20;;;;;;4971337;28;20773;-85
2021/11/14 03:20:57;;;;;;;25.57;22.87;;;8.30;94.40;;;;;;4970189;28;20426;-86
2021/11/14 03:23:26;;;;;;;25.93;23.33;;;8.30;94.60;;;;;;4970781;28;20226;-85
2021/11/14 03:25:52;;;;;;;26.10;23.20;;;8.30;94.20;;;;;;4971175;28;20182;-85
2021/11/14 03:28:19;;;;;;;26.37;23.70;;;8.30;94.50;;;;;;4971128;28;20791;-85
2021/11/14 03:30:48;;;;;;;27.23;24.47;;;8.30;94.20;;;;;;4970908;28;20505;-84
2021/11/14 03:33:15;;;;;;;25.60;22.83;;;8.20;94.20;;;;;;4971037;28;20722;-85
2021/11/14 03:35:51;;;;;;;25.90;23.30;;;8.20;94.40;;;;;;4971493;28;20852;-83
2021/11/14 03:38:20;;;;;;;25.47;22.87;;;8.20;94.60;;;;;;4970635;28;20422;-84
2021/11/14 03:40:46;;;;;;;25.40;22.80;;;8.30;94.20;;;;;;4970512;28;20518;-85
2021/11/14 03:43:11;;;;;;;26.20;22.30;;;8.20;94.40;;;;;;4971672;28;20501;-85
2021/11/14 03:45:38;;;;;;;23.20;20.80;;;8.20;94.60;;;;;;4970965;28;20194;-86
2021/11/14 03:48:04;;;;;;;25.73;23.07;;;8.30;94.60;;;;;;4971645;28;20775;-87
2021/11/14 03:50:30;;;;;;;27.23;24.10;;;8.20;94.60;;;;;;4983344;28;20455;-82
2021/11/14 03:52:56;;;;;;;25.03;22.33;;;8.30;94.60;;;;;;4967483;28;21028;-83
2021/11/14 03:55:22;;;;;;;24.83;21.30;;;8.30;94.30;;;;;;4967537;28;20498;-82
2021/11/14 03:57:49;;;;;;;22.90;20.60;;;8.20;94.50;;;;;;4952758;28;20178;-81
2021/11/14 04:00:19;;;;;;;24.57;22.07;;;8.20;94.80;;;;;;4967525;28;21100;-82
2021/11/14 04:02:46;;;;;;;23.53;21.00;;;8.20;94.60;;;;;;4953793;28;20481;-83
2021/11/14 04:05:12;;;;;;;25.23;22.60;;;8.20;94.40;;;;;;4974370;28;20489;-83
2021/11/14 04:07:38;;;;;;;22.70;20.40;;;8.20;94.30;;;;;;4971962;28;20509;-83
2021/11/14 04:10:05;;;;;;;25.53;22.70;;;8.20;94.30;;;;;;4986813;28;20525;-84
2021/11/14 04:12:31;;;;;;;24.93;22.47;;;8.20;94.20;;;;;;4987348;28;20221;-84
2021/11/14 04:14:56;;;;;;;24.00;21.60;;;8.30;94.40;;;;;;4987354;28;20418;-84
2021/11/14 04:17:22;;;;;;;23.17;20.73;;;8.30;94.20;;;;;;4987202;28;20528;-84
2021/11/14 04:19:48;;;;;;;23.03;20.73;;;8.20;93.50;;;;;;4986280;28;20545;-85
2021/11/14 04:22:14;;;;;;;26.30;22.57;;;8.30;94.00;;;;;;4987138;28;20198;-84
2021/11/14 04:24:40;;;;;;;23.53;20.97;;;8.20;93.80;;;;;;4971310;28;20654;-84
2021/11/14 04:27:06;;;;;;;24.33;22.07;;;8.20;94.20;;;;;;4971467;28;20414;-85
2021/11/14 04:29:31;;;;;;;25.57;22.93;;;8.20;93.60;;;;;;4986129;28;20182;-83
2021/11/14 04:31:57;;;;;;;23.77;21.10;;;8.20;93.20;;;;;;4981997;28;20426;-83
2021/11/14 04:34:26;;;;;;;23.77;21.30;;;8.20;92.90;;;;;;4969049;28;20178;-83
2021/11/14 04:36:55;;;;;;;23.60;21.13;;;8.20;93.10;;;;;;4971066;28;20170;-84
2021/11/14 04:39:22;;;;;;;23.73;21.33;;;8.20;93.10;;;;;;4970413;28;20476;-84
2021/11/14 04:41:48;;;;;;;21.73;19.47;;;8.20;93.10;;;;;;4971328;28;20502;-83
2021/11/14 04:44:17;;;;;;;24.23;21.27;;;8.20;93.30;;;;;;4969670;28;20502;-84
2021/11/14 04:46:46;;;;;;;26.67;23.87;;;8.20;93.40;;;;;;4969606;28;20187;-84
2021/11/14 04:49:15;;;;;;;26.10;21.53;;;8.20;93.40;;;;;;4970144;28;20460;-83
2021/11/14 04:51:42;;;;;;;24.00;21.60;;;8.20;93.70;;;;;;4969387;28;20954;-84
2021/11/14 04:54:08;;;;;;;26.43;22.40;;;8.20;93.60;;;;;;4970075;28;20449;-83
2021/11/14 04:56:34;;;;;;;24.17;21.77;;;8.30;93.40;;;;;;4970708;28;20438;-84
2021/11/14 04:58:59;;;;;;;21.57;19.47;;;8.20;93.60;;;;;;4971847;28;20180;-85
2021/11/14 05:01:25;;;;;;;24.27;21.77;;;8.30;93.60;;;;;;4972757;28;20601;-85
2021/11/14 05:03:51;;;;;;;22.33;19.80;;;8.30;93.50;;;;;;4970947;28;20678;-84
2021/11/14 05:06:17;;;;;;;23.43;20.93;;;8.30;93.10;;;;;;4969079;28;20175;-85
2021/11/14 05:08:43;;;;;;;23.73;21.27;;;8.30;92.60;;;;;;4966352;28;20441;-83
2021/11/14 05:11:09;;;;;;;23.10;20.80;;;8.30;93.20;;;;;;4970594;28;20237;-85
2021/11/14 05:13:35;;;;;;;24.40;22.00;;;8.30;93.20;;;;;;4970816;28;20457;-84
2021/11/14 05:16:00;;;;;;;23.67;21.13;;;8.30;93.00;;;;;;4971092;28;20170;-83
2021/11/14 05:18:26;;;;;;;21.73;19.50;;;8.30;92.90;;;;;;4971483;28;20418;-85
2021/11/14 05:20:52;;;;;;;22.70;20.40;;;8.30;92.40;;;;;;4970776;28;20190;-84
2021/11/14 05:23:18;;;;;;;28.83;22.77;;;8.30;92.60;;;;;;4970874;28;20767;-84
2021/11/14 05:25:45;;;;;;;23.40;21.10;;;8.30;92.40;;;;;;4968142;28;20553;-84
2021/11/14 05:28:11;;;;;;;23.00;20.50;;;8.30;92.30;;;;;;4987863;28;20178;-85
2021/11/14 05:30:37;;;;;;;24.77;20.17;;;8.30;92.30;;;;;;4971871;28;20425;-84
2021/11/14 05:33:02;;;;;;;21.87;19.50;;;8.30;92.40;;;;;;4972915;28;20462;-85
2021/11/14 05:35:28;;;;;;;23.20;20.80;;;8.30;92.80;;;;;;4971727;28;20418;-85
2021/11/14 05:37:54;;;;;;;22.33;19.97;;;8.30;92.20;;;;;;4972551;28;20516;-84
2021/11/14 05:40:20;;;;;;;20.87;18.53;;;8.40;92.30;;;;;;4971198;28;20497;-87
2021/11/14 05:42:45;;;;;;;21.50;19.30;;;8.30;92.10;;;;;;4971596;28;20182;-86
2021/11/14 05:45:11;;;;;;;20.70;18.50;;;8.30;92.10;;;;;;4970694;28;20179;-85
2021/11/14 05:47:37;;;;;;;22.90;20.60;;;8.30;92.10;;;;;;4970974;28;20183;-84
2021/11/14 05:50:07;;;;;;;23.90;20.30;;;8.30;92.10;;;;;;4971209;28;20582;-85
2021/11/14 05:52:33;;;;;;;21.27;18.97;;;8.30;92.20;;;;;;4970265;28;20454;-83
2021/11/14 05:54:59;;;;;;;20.33;18.23;;;8.30;92.10;;;;;;4971404;28;20425;-83
2021/11/14 05:57:26;;;;;;;18.17;16.30;;;8.30;92.10;;;;;;4970996;28;20438;-83
2021/11/14 06:00:05;;;;;;;20.40;18.33;;;8.30;92.20;;;;;;4971129;28;20231;-84
2021/11/14 06:05:15;;;;;;;20.07;18.07;;;8.30;92.40;;;;;;4973135;28;20410;-84
2021/11/14 06:07:42;;;;;;;20.63;18.57;;;8.30;92.30;;;;;;4973419;28;20422;-84
2021/11/14 06:10:08;;;;;;;21.43;19.23;;;8.30;92.50;;;;;;4974477;28;20436;-84
2021/11/14 06:12:37;;;;;;;22.50;20.20;;;8.30;92.20;;;;;;4974224;28;20866;-84
2021/11/14 06:15:04;;;;;;;19.93;17.83;;;8.30;92.10;;;;;;4973656;28;20437;-86
2021/11/14 06:17:30;;;;;;;23.38;21.05;;;8.20;92.10;;;;;;4973407;28;20434;-85
2021/11/14 06:19:56;;;;;;;19.70;15.70;;;8.30;92.50;;;;;;4974521;28;20175;-86
2021/11/14 06:22:22;;;;;;;21.27;19.00;;;8.30;92.10;;;;;;4974404;28;20246;-86
2021/11/14 06:24:47;;;;;;;22.30;19.03;;;8.30;92.10;;;;;;4974949;28;20437;-86
2021/11/14 06:27:13;;;;;;;20.80;18.60;;;8.30;92.40;;;;;;4974547;28;20432;-86
2021/11/14 06:29:39;;;;;;;20.17;18.00;;;8.30;92.60;;;;;;4973931;28;20182;-86
2021/11/14 06:32:05;;;;;;;20.40;18.20;;;8.30;91.80;;;;;;4974638;28;20187;-86
2021/11/14 06:34:31;;;;;;;21.77;18.37;;;8.30;91.90;;;;;;4974497;28;20437;-86
2021/11/14 06:36:56;;;;;;;20.87;18.67;;;8.40;91.90;;;;;;4973796;28;20410;-86
2021/11/14 06:39:22;;;;;;;20.53;18.33;;;8.30;91.90;;;;;;4975464;28;20545;-86
2021/11/14 06:41:48;;;;;;;21.57;19.47;;;8.30;91.90;;;;;;4975465;28;20170;-87
2021/11/14 06:44:17;;;;;;;22.57;20.10;;;8.20;91.80;;;;;;4970375;28;20273;-85
2021/11/14 06:46:43;;;;;;;21.50;19.20;;;8.20;92.40;;;;;;4978301;28;20172;-88
2021/11/14 06:49:09;;;;;;;23.50;21.00;;;8.20;92.50;;;;;;4953354;28;20791;-86
2021/11/14 06:51:35;;;;;;;22.30;18.93;;;8.30;92.40;;;;;;4977848;28;20201;-86
2021/11/14 06:54:00;;;;;;;21.20;19.10;;;8.30;92.50;;;;;;4991150;28;20202;-86
2021/11/14 06:56:26;;;;;;;20.70;18.40;;;8.30;91.20;;;;;;4991077;28;20538;-85
2021/11/14 06:58:51;;;;;;;19.60;17.53;;;8.30;91.90;;;;;;4990926;28;20178;-88
2021/11/14 07:01:17;;;;;;;19.30;17.40;;;8.30;91.50;;;;;;4984388;28;20191;-86
2021/11/14 07:03:43;;;;;;;18.03;16.23;;;8.30;91.50;;;;;;4976588;28;20189;-87
2021/11/14 07:06:09;;;;;;;19.37;17.47;;;8.30;91.70;;;;;;4974676;28;20186;-86
2021/11/14 07:08:37;;;;;;;18.80;17.10;;;8.30;91.30;;;;;;4967529;28;20190;-85
2021/11/14 07:11:03;;;;;;;20.20;18.20;;;8.40;91.30;;;;;;4963390;28;20275;-84
2021/11/14 07:13:31;;;;;;;19.77;17.83;;;8.40;91.10;;;;;;4990039;28;21069;-86
2021/11/14 07:15:57;;;;;;;21.33;19.03;;;8.40;90.70;;;;;;4989834;28;20277;-83
2021/11/14 07:18:22;;;;;;;22.30;20.03;;;8.40;90.40;;;;;;4988014;28;21041;-84
2021/11/14 07:20:48;;;;;;;19.10;17.27;;;8.40;90.30;;;;;;4974342;28;20173;-85
2021/11/14 07:23:14;;;;;;;21.50;19.20;;;8.50;90.50;;;;;;4965984;28;20199;-83
2021/11/14 07:25:40;;;;;;;21.50;19.43;;;8.50;90.20;;;;;;4973378;28;20185;-85
2021/11/14 07:28:05;;;;;;;20.70;18.70;;;8.50;90.30;;;;;;4989028;28;20206;-83
2021/11/14 07:30:33;;;;;;;21.40;19.20;;;8.60;88.90;;;;;;4966244;28;20210;-83
2021/11/14 07:32:59;;;;;;;20.60;18.60;;;8.60;88.40;;;;;;4980329;28;20633;-85
2021/11/14 07:35:26;;;;;;;18.17;16.37;;;8.60;87.60;;;;;;4970169;28;20441;-84
2021/11/14 07:37:52;;;;;;;20.83;18.70;;;8.60;88.80;;;;;;4964801;28;20915;-84
2021/11/14 07:40:23;;;;;;;20.97;18.67;;;8.60;90.10;;;;;;4975438;28;20521;-85
2021/11/14 07:42:53;;;;;;;20.93;18.73;;;8.60;88.60;;;;;;4978029;28;20434;-88
2021/11/14 07:45:21;;;;;;;19.93;18.13;;;8.60;89.80;;;;;;4999953;28;20489;-85
2021/11/14 07:47:47;;;;;;;21.03;18.83;;;8.60;90.10;;;;;;4989586;28;20413;-88
2021/11/14 07:50:15;;;;;;;22.10;19.87;;;8.70;89.50;;;;;;4989981;28;20421;-86
2021/11/14 07:52:44;;;;;;;20.80;18.70;;;8.70;90.20;;;;;;4989797;28;20492;-91
2021/11/14 07:55:11;;;;;;;21.30;19.17;;;8.70;89.10;;;;;;4974101;28;20429;-88
2021/11/14 07:57:43;;;;;;;20.03;18.13;;;8.70;88.00;;;;;;4972882;28;20430;-87
2021/11/14 08:00:15;;;;;;;19.97;17.97;;;8.70;88.60;;;;;;4975189;28;20426;-86
2021/11/14 08:02:41;;;;;;;20.97;18.80;;;8.70;89.70;;;;;;4971642;28;20433;-85
2021/11/14 08:05:08;;;;;;;22.53;20.13;;;8.70;89.00;;;;;;4987231;28;20467;-85
2021/11/14 08:07:34;;;;;;;20.93;19.00;;;8.70;88.10;;;;;;4960666;28;20427;-85
2021/11/14 08:09:59;;;;;;;20.33;18.33;;;8.70;88.80;;;;;;4953024;29;20994;-85
2021/11/14 08:12:25;;;;;;;20.47;18.37;;;8.70;87.30;;;;;;4953156;29;20294;-85
2021/11/14 08:14:50;;;;;;;21.50;19.30;;;8.80;87.10;;;;;;4953511;29;20601;-85
2021/11/14 08:17:16;;;;;;;19.70;17.80;;;8.80;87.10;;;;;;4953185;29;20183;-85
2021/11/14 08:19:43;;;;;;;21.13;19.10;;;8.80;88.90;;;;;;4952967;29;20175;-85
2021/11/14 08:22:14;;;;;;;21.33;18.80;;;8.80;88.50;;;;;;4953465;29;20974;-87
2021/11/14 08:24:40;;;;;;;20.30;18.43;;;8.80;88.60;;;;;;4953430;29;20423;-84
2021/11/14 08:27:06;;;;;;;19.60;17.50;;;8.90;88.60;;;;;;4952766;29;20421;-85
2021/11/14 08:29:31;;;;;;;19.10;17.20;;;8.90;87.40;;;;;;4953033;28;20708;-84
2021/11/14 08:31:57;;;;;;;20.33;18.33;;;8.90;85.80;;;;;;4964677;28;20478;-85
2021/11/14 08:34:23;;;;;;;19.87;17.87;;;8.80;84.40;;;;;;4972110;28;20213;-86
2021/11/14 08:36:48;;;;;;;18.83;16.93;;;8.90;83.90;;;;;;4971888;28;20179;-86
2021/11/14 08:39:14;;;;;;;18.63;16.93;;;8.80;83.70;;;;;;4968021;28;20211;-86
2021/11/14 08:41:40;;;;;;;17.33;15.73;;;8.80;84.10;;;;;;4953851;28;20211;-85
2021/11/14 08:44:06;;;;;;;21.77;19.23;;;8.90;82.40;;;;;;4953364;29;20222;-85
2021/11/14 08:46:32;;;;;;;17.80;15.90;;;8.80;82.20;;;;;;4953785;29;20183;-85
2021/11/14 08:48:59;;;;;;;19.60;17.70;;;8.90;82.40;;;;;;4953801;29;20194;-85
2021/11/14 08:51:25;;;;;;;17.93;16.13;;;8.80;82.50;;;;;;4953544;29;20765;-85
2021/11/14 08:53:58;;;;;;;17.67;15.77;;;9.00;84.00;;;;;;4953007;29;20553;-85
2021/11/14 08:56:25;;;;;;;17.23;15.63;;;8.90;81.50;;;;;;4953097;29;20430;-85
2021/11/14 08:58:51;;;;;;;19.43;17.53;;;8.90;81.50;;;;;;4952546;29;20426;-84
2021/11/14 09:01:16;;;;;;;18.63;16.83;;;9.00;81.10;;;;;;4952942;29;20475;-84
2021/11/14 09:03:44;;;;;;;19.70;17.60;;;9.00;81.10;;;;;;4952953;29;20187;-84
2021/11/14 09:06:10;;;;;;;19.57;17.73;;;9.00;79.60;;;;;;4953413;29;20625;-85
2021/11/14 09:08:36;;;;;;;20.37;18.10;;;9.10;79.60;;;;;;4952772;29;20436;-84
2021/11/14 09:11:02;;;;;;;19.27;17.50;;;9.10;79.40;;;;;;4953681;29;20191;-85
2021/11/14 09:13:28;;;;;;;18.00;16.37;;;9.10;78.70;;;;;;4953045;29;20214;-85
2021/11/14 09:15:54;;;;;;;18.40;16.67;;;9.20;80.10;;;;;;4952964;29;20797;-85
2021/11/14 09:18:20;;;;;;;18.93;16.93;;;9.20;80.90;;;;;;4952976;29;20426;-86
2021/11/14 09:20:47;;;;;;;18.53;16.73;;;9.30;80.30;;;;;;4953163;29;20419;-85
2021/11/14 09:23:13;;;;;;;17.93;16.03;;;9.20;78.80;;;;;;4953252;29;20447;-85
2021/11/14 09:25:40;;;;;;;18.47;16.70;;;9.20;77.20;;;;;;4954424;28;20479;-85
2021/11/14 09:28:06;;;;;;;20.10;17.90;;;9.20;77.00;;;;;;4952778;29;20485;-85
2021/11/14 09:30:32;;;;;;;19.17;17.40;;;9.20;78.70;;;;;;4952679;29;20426;-85
2021/11/14 09:32:58;;;;;;;17.37;15.60;;;9.30;79.30;;;;;;4952795;29;20831;-85
2021/11/14 09:35:24;;;;;;;19.13;17.23;;;9.30;78.90;;;;;;4952849;29;20526;-84
2021/11/14 09:37:50;;;;;;;18.67;16.97;;;9.30;78.90;;;;;;4954903;28;20182;-85
2021/11/14 09:40:15;;;;;;;17.50;15.73;;;9.30;78.20;;;;;;4957123;28;20198;-85
2021/11/14 09:42:42;;;;;;;16.63;15.13;;;9.30;77.50;;;;;;4954796;28;20590;-85
2021/11/14 09:45:09;;;;;;;18.47;16.43;;;9.30;76.50;;;;;;4955614;29;20183;-85
2021/11/14 09:47:37;;;;;;;18.97;17.10;;;9.30;77.90;;;;;;4956018;29;21063;-84
2021/11/14 09:50:06;;;;;;;17.53;15.90;;;9.30;77.70;;;;;;4955840;29;20426;-86
2021/11/14 09:52:31;;;;;;;17.70;15.97;;;9.30;79.00;;;;;;4957187;28;20465;-84
2021/11/14 09:55:00;;;;;;;19.07;17.27;;;9.30;78.80;;;;;;4966940;28;20832;-85
2021/11/14 09:57:26;;;;;;;18.63;16.87;;;9.30;76.90;;;;;;4980073;28;20422;-85
2021/11/14 09:59:51;;;;;;;18.20;16.40;;;9.30;76.90;;;;;;4955206;29;20430;-85
2021/11/14 10:02:18;;;;;;;17.27;15.57;;;9.30;77.00;;;;;;4956101;29;20543;-86
2021/11/14 10:04:44;;;;;;;18.60;16.70;;;9.30;77.60;;;;;;4955946;29;20663;-86
2021/11/14 10:07:12;;;;;;;18.13;16.43;;;9.30;77.10;;;;;;4955689;29;20427;-85
2021/11/14 10:09:49;;;;;;;18.47;16.67;;;9.30;77.60;;;;;;4956012;29;20434;-86
2021/11/14 10:12:17;;;;;;;18.77;16.90;;;9.30;77.30;;;;;;4955608;29;20426;-87
2021/11/14 10:14:44;;;;;;;17.83;16.03;;;9.30;77.10;;;;;;4955876;29;20418;-86
2021/11/14 10:17:17;;;;;;;17.87;16.10;;;9.40;77.60;;;;;;4956472;29;20970;-86
2021/11/14 10:19:43;;;;;;;18.60;16.80;;;9.40;76.20;;;;;;4956102;29;20426;-86
2021/11/14 10:22:08;;;;;;;18.80;17.00;;;9.40;76.70;;;;;;4956088;29;20449;-85
2021/11/14 10:24:35;;;;;;;18.93;17.03;;;9.50;76.70;;;;;;4955828;29;20334;-85
2021/11/14 10:27:15;;;;;;;17.47;15.57;;;9.50;76.20;;;;;;4967682;28;20244;-85
2021/11/14 10:29:49;;;;;;;18.13;16.20;;;9.60;76.90;;;;;;4973632;28;20533;-85
2021/11/14 10:32:16;;;;;;;16.90;15.20;;;9.60;76.40;;;;;;4982556;28;20751;-85
2021/11/14 10:34:57;;;;;;;18.03;16.33;;;9.60;75.10;;;;;;4970065;28;20827;-85
2021/11/14 10:37:23;;;;;;;17.20;15.50;;;9.60;74.40;;;;;;4973216;28;20489;-85
2021/11/14 10:39:59;;;;;;;18.97;17.17;;;9.60;74.30;;;;;;4975185;28;20557;-84
2021/11/14 10:42:27;;;;;;;19.03;17.20;;;9.60;74.30;;;;;;4974300;28;20433;-86
2021/11/14 10:44:56;;;;;;;18.60;15.30;;;9.60;74.60;;;;;;4985395;28;20502;-86
2021/11/14 10:47:28;;;;;;;19.00;17.10;;;9.70;75.20;;;;;;4980497;28;20432;-87
2021/11/14 10:49:58;;;;;;;20.13;17.23;;;9.70;74.20;;;;;;4968953;28;20559;-84
2021/11/14 10:52:27;;;;;;;21.17;16.70;;;9.70;74.40;;;;;;4973305;28;20473;-86
2021/11/14 10:54:56;;;;;;;18.20;16.20;;;9.80;75.90;;;;;;4960546;28;20915;-87
2021/11/14 10:57:25;;;;;;;68.40;61.57;;;9.80;75.00;;;;;;4990737;28;20473;-86
2021/11/14 10:59:51;;;;;;;36.93;33.03;;;9.80;72.90;;;;;;4971973;28;20414;-82
2021/11/14 11:02:19;;;;;;;18.70;16.93;;;9.90;75.30;;;;;;4986832;28;20419;-87
2021/11/14 11:04:53;;;;;;;18.90;16.67;;;9.90;73.50;;;;;;4974718;28;20954;-83
2021/11/14 11:07:19;;;;;;;20.43;18.20;;;9.90;72.90;;;;;;4974457;28;20926;-84
2021/11/14 11:09:56;;;;;;;23.40;19.00;;;10.00;71.10;;;;;;4974794;28;20452;-86
2021/11/14 11:12:25;;;;;;;19.97;16.83;;;10.00;69.30;;;;;;4974782;28;20990;-83
2021/11/14 11:14:57;;;;;;;21.47;16.87;;;10.20;73.10;;;;;;4974831;28;20509;-83
2021/11/14 11:17:24;;;;;;;17.47;14.97;;;10.20;68.90;;;;;;4974386;28;20489;-85
2021/11/14 11:19:50;;;;;;;18.47;16.43;;;10.20;67.70;;;;;;4974736;28;20436;-85
2021/11/14 11:22:16;;;;;;;19.53;17.03;;;10.10;67.90;;;;;;4974392;28;20516;-83
2021/11/14 11:24:53;;;;;;;19.50;16.40;;;10.10;68.40;;;;;;4974691;28;20535;-83
2021/11/14 11:27:21;;;;;;;18.73;16.37;;;10.30;73.50;;;;;;4973933;28;20178;-86
2021/11/14 11:29:48;;;;;;;17.90;16.10;;;10.10;68.40;;;;;;4974539;28;20422;-82
2021/11/14 11:32:15;;;;;;;19.03;16.40;;;10.10;67.70;;;;;;4962161;28;20462;-86
2021/11/14 11:34:42;;;;;;;16.40;14.63;;;10.20;68.00;;;;;;4968251;28;20795;-84
2021/11/14 11:37:09;;;;;;;16.60;14.90;;;10.10;68.10;;;;;;4969071;28;20433;-84
2021/11/14 11:39:36;;;;;;;19.37;17.33;;;10.10;68.20;;;;;;4974048;28;20433;-84
2021/11/14 11:42:02;;;;;;;19.93;17.83;;;10.10;69.60;;;;;;4970686;28;20435;-84
2021/11/14 11:44:28;;;;;;;18.13;16.23;;;10.10;68.60;;;;;;4978294;28;20467;-84
2021/11/14 11:47:00;;;;;;;19.73;17.13;;;10.10;68.70;;;;;;4968280;28;20922;-81
2021/11/14 11:49:27;;;;;;;18.47;16.57;;;10.00;69.20;;;;;;4973948;28;20426;-81
2021/11/14 11:51:56;;;;;;;19.20;17.17;;;10.00;69.20;;;;;;4973080;28;20986;-81
2021/11/14 11:54:25;;;;;;;22.93;20.60;;;10.00;69.70;;;;;;4973227;28;20462;-81
2021/11/14 11:56:57;;;;;;;22.63;20.23;;;10.00;70.70;;;;;;4965592;28;20457;-81
2021/11/14 11:59:28;;;;;;;17.80;16.20;;;10.00;71.20;;;;;;4970989;28;20422;-81
2021/11/14 12:02:07;;;;;;;18.40;16.23;;;10.00;70.50;;;;;;4967393;28;20437;-82
2021/11/14 12:04:40;;;;;;;17.17;15.37;;;10.00;70.40;;;;;;4973802;28;20748;-81
2021/11/14 12:07:10;;;;;;;18.23;16.43;;;10.00;70.90;;;;;;4965774;28;20776;-81
2021/11/14 12:09:43;;;;;;;18.63;16.60;;;10.00;72.50;;;;;;4969747;28;20442;-81
2021/11/14 12:12:17;;;;;;;18.50;16.60;;;10.10;71.00;;;;;;4954090;28;20775;-81
2021/11/14 12:14:43;;;;;;;19.00;16.90;;;10.10;70.60;;;;;;4964594;28;20456;-84
2021/11/14 12:17:10;;;;;;;19.00;16.90;;;10.00;70.00;;;;;;4981156;28;20509;-82
2021/11/14 12:19:38;;;;;;;21.20;17.23;;;10.00;70.40;;;;;;4972070;28;20179;-83
2021/11/14 12:22:08;;;;;;;18.50;16.47;;;10.10;71.20;;;;;;4983845;28;20438;-83
2021/11/14 12:24:53;;;;;;;19.07;17.00;;;10.20;70.40;;;;;;4962013;28;20465;-83
2021/11/14 12:27:27;;;;;;;16.93;15.00;;;10.20;69.20;;;;;;4970699;28;20417;-83
2021/11/14 12:30:05;;;;;;;17.80;15.97;;;10.20;68.60;;;;;;4967475;28;20426;-83
2021/11/14 12:32:51;;;;;;;19.63;15.83;;;10.30;68.40;;;;;;4971088;28;20465;-83
2021/11/14 12:35:45;;;;;;;17.00;14.60;;;10.40;67.20;;;;;;4972234;28;20427;-82
2021/11/14 12:38:19;;;;;;;19.67;15.73;;;10.40;66.50;;;;;;4954235;28;20419;-81